Time;durP1;ratioP1;P1;durP2;ratioP2;P2;SDS_P1;SDS_P2;PMS_P1;PMS_P2;Temp;Humidity;BMP_temperature;BMP_pressure;BME280_temperature;BME280_humidity;BME280_pressure;Samples;Min_cycle;Max_cycle;Signal;HPM_P1;HPM_P2
2023/09/08 00:01:05;;;;;;;;;;;;;;;25.58;61.09;101719.50;5038980;28;19916;-82
2023/09/08 00:03:34;;;;;;;;;;;;;;;25.58;61.15;101719.50;5059245;28;20009;-82
2023/09/08 00:05:59;;;;;;;;;;;;;;;25.55;61.05;101723.06;5058148;28;19923;-83
2023/09/08 00:08:32;;;;;;;;;;;;;;;25.55;60.77;101724.84;5053421;28;19917;-82
2023/09/08 00:11:01;;;;;;;;;;;;;;;25.58;61.02;101727.53;5051675;28;19923;-82
2023/09/08 00:13:30;;;;;;;;;;;;;;;25.56;61.13;101729.28;5059802;28;20523;-82
2023/09/08 00:16:02;;;;;;;;;;;;;;;25.53;60.79;101724.81;5057041;28;19932;-82
2023/09/08 00:18:27;;;;;;;;;;;;;;;25.55;61.17;101723.06;5058491;28;19916;-81
2023/09/08 00:20:52;;;;;;;;;;;;;;;25.51;61.14;101723.91;5068441;28;19939;-84
2023/09/08 00:23:18;;;;;;;;;;;;;;;25.52;61.10;101722.13;5059653;28;19920;-83
2023/09/08 00:25:43;;;;;;;;;;;;;;;25.54;61.06;101726.59;5055349;28;19920;-82
2023/09/08 00:28:09;;;;;;;;;;;;;;;25.54;60.70;101721.25;5061863;28;19939;-82
2023/09/08 00:30:34;;;;;;;;;;;;;;;25.57;60.86;101721.28;5036931;28;20382;-82
2023/09/08 00:32:59;;;;;;;;;;;;;;;25.57;60.80;101723.97;5058743;28;20500;-82
2023/09/08 00:35:25;;;;;;;;;;;;;;;25.55;61.18;101722.16;5054915;28;20377;-82
2023/09/08 00:37:50;;;;;;;;;;;;;;;25.55;61.17;101722.16;5060119;28;19923;-82
2023/09/08 00:40:16;;;;;;;;;;;;;;;25.52;61.18;101717.66;5061896;28;20007;-81
2023/09/08 00:42:41;;;;;;;;;;;;;;;25.53;61.19;101714.13;5052120;28;20393;-81
2023/09/08 00:45:07;;;;;;;;;;;;;;;25.55;61.39;101714.13;5061524;28;19917;-81
2023/09/08 00:47:33;;;;;;;;;;;;;;;25.50;61.00;101715.88;5057952;28;19989;-82
2023/09/08 00:49:58;;;;;;;;;;;;;;;25.53;61.40;101721.25;5055588;28;20460;-83
2023/09/08 00:52:24;;;;;;;;;;;;;;;25.49;61.31;101717.66;5051433;28;19936;-82
2023/09/08 00:54:49;;;;;;;;;;;;;;;25.52;61.23;101716.78;5052418;28;20386;-81
2023/09/08 00:57:15;;;;;;;;;;;;;;;25.47;60.85;101718.53;5050611;28;19971;-82
2023/09/08 00:59:40;;;;;;;;;;;;;;;25.47;61.06;101723.88;5053395;28;19924;-81
2023/09/08 01:02:05;;;;;;;;;;;;;;;25.48;60.53;101729.22;5061520;28;20302;-83
2023/09/08 01:04:33;;;;;;;;;;;;;;;25.44;60.49;101715.81;5052422;28;19924;-82
2023/09/08 01:06:58;;;;;;;;;;;;;;;25.45;60.24;101718.50;5054983;28;19923;-83
2023/09/08 01:09:24;;;;;;;;;;;;;;;25.46;60.11;101714.06;5038682;28;20015;-82
2023/09/08 01:11:50;;;;;;;;;;;;;;;25.41;60.07;101710.47;5061279;28;20347;-84
2023/09/08 01:14:17;;;;;;;;;;;;;;;25.43;59.85;101714.94;5055323;28;20109;-81
2023/09/08 01:16:43;;;;;;;;;;;;;;;25.41;59.93;101703.31;5069677;28;19919;-82
2023/09/08 01:19:10;;;;;;;;;;;;;;;25.33;59.87;101703.25;5056076;28;19917;-81
2023/09/08 01:21:54;;;;;;;;;;;;;;;25.31;59.86;101705.03;5050864;28;19917;-83
2023/09/08 01:24:29;;;;;;;;;;;;;;;25.34;60.09;101693.47;5059392;28;19913;-82
2023/09/08 01:26:54;;;;;;;;;;;;;;;25.33;59.70;101694.34;5056470;28;19916;-82
2023/09/08 01:29:20;;;;;;;;;;;;;;;25.34;59.59;101689.03;5050919;28;19913;-81
2023/09/08 01:31:45;;;;;;;;;;;;;;;25.36;59.56;101687.25;5058643;28;20058;-82
2023/09/08 01:34:11;;;;;;;;;;;;;;;25.33;59.66;101687.22;5052061;28;20547;-81
2023/09/08 01:36:37;;;;;;;;;;;;;;;25.35;59.38;101684.56;5054764;28;19912;-82
2023/09/08 01:39:02;;;;;;;;;;;;;;;25.34;59.32;101686.34;5058453;28;20016;-82
2023/09/08 01:41:28;;;;;;;;;;;;;;;25.33;59.58;101691.66;5057116;28;19917;-82
2023/09/08 01:43:54;;;;;;;;;;;;;;;25.30;59.42;101683.63;5050464;28;19912;-83
2023/09/08 01:46:20;;;;;;;;;;;;;;;25.35;59.40;101676.53;5053617;28;19916;-82
2023/09/08 01:48:45;;;;;;;;;;;;;;;25.37;59.15;101670.31;5051280;28;19925;-82
2023/09/08 01:51:10;;;;;;;;;;;;;;;25.35;59.09;101658.72;5057714;28;19923;-82
2023/09/08 01:53:36;;;;;;;;;;;;;;;25.33;59.14;101657.78;5054917;28;19914;-82
2023/09/08 01:56:01;;;;;;;;;;;;;;;25.31;59.60;101664.03;5053416;28;20357;-81
2023/09/08 01:58:27;;;;;;;;;;;;;;;25.29;59.56;101665.78;5051745;28;20400;-82
2023/09/08 02:00:52;;;;;;;;;;;;;;;25.30;59.79;101659.56;5038751;28;20358;-80
2023/09/08 02:03:20;;;;;;;;;;;;;;;25.30;59.63;101649.78;5049664;28;19912;-81
2023/09/08 02:05:46;;;;;;;;;;;;;;;25.30;59.54;101664.94;5051860;28;19956;-82
2023/09/08 02:08:12;;;;;;;;;;;;;;;25.30;59.46;101662.25;5062931;28;19968;-82
2023/09/08 02:10:39;;;;;;;;;;;;;;;25.28;59.71;101658.66;5051636;28;20003;-82
2023/09/08 02:13:04;;;;;;;;;;;;;;;25.28;59.69;101653.31;5053865;28;20428;-81
2023/09/08 02:15:30;;;;;;;;;;;;;;;25.27;59.40;101647.06;5059511;28;19921;-82
2023/09/08 02:17:55;;;;;;;;;;;;;;;25.28;59.19;101659.56;5051883;28;20432;-82
2023/09/08 02:20:21;;;;;;;;;;;;;;;25.28;59.34;101653.31;5051386;28;19913;-82
2023/09/08 02:22:49;;;;;;;;;;;;;;;25.30;59.16;101660.47;5054572;28;20422;-81
2023/09/08 02:25:14;;;;;;;;;;;;;;;25.28;59.28;101656.00;5069753;28;20006;-80
2023/09/08 02:27:40;;;;;;;;;;;;;;;25.24;59.19;101660.41;5051294;28;20509;-83
2023/09/08 02:30:05;;;;;;;;;;;;;;;25.26;59.15;101664.00;5051889;28;20355;-80
2023/09/08 02:32:31;;;;;;;;;;;;;;;25.25;58.99;101669.31;5064128;28;19916;-82
2023/09/08 02:34:56;;;;;;;;;;;;;;;25.24;59.20;101675.56;5051470;28;19917;-82
2023/09/08 02:37:22;;;;;;;;;;;;;;;25.21;59.34;101672.84;5062079;28;20407;-82
2023/09/08 02:39:47;;;;;;;;;;;;;;;25.22;59.51;101678.22;5036971;28;20389;-81
2023/09/08 02:42:13;;;;;;;;;;;;;;;25.23;59.27;101665.75;5051406;28;19913;-82
2023/09/08 02:44:38;;;;;;;;;;;;;;;25.23;59.40;101668.41;5050988;28;19959;-82
2023/09/08 02:47:06;;;;;;;;;;;;;;;25.22;59.52;101683.56;5050296;28;20406;-81
2023/09/08 02:49:31;;;;;;;;;;;;;;;25.24;59.42;101679.13;5057527;28;20879;-82
2023/09/08 02:51:57;;;;;;;;;;;;;;;25.24;59.29;101679.13;5052633;28;19912;-82
2023/09/08 02:54:23;;;;;;;;;;;;;;;25.24;59.51;101673.78;5061593;28;19921;-82
2023/09/08 02:56:48;;;;;;;;;;;;;;;25.28;59.57;101683.63;5061799;28;19920;-82
2023/09/08 02:59:14;;;;;;;;;;;;;;;25.27;59.28;101672.91;5071068;28;20310;-82
2023/09/08 03:01:39;;;;;;;;;;;;;;;25.23;59.77;101672.00;5062988;28;20404;-82
2023/09/08 03:04:05;;;;;;;;;;;;;;;25.25;59.55;101675.59;5064291;28;20206;-81
2023/09/08 03:06:30;;;;;;;;;;;;;;;25.25;59.72;101669.31;5064899;28;19916;-81
2023/09/08 03:08:56;;;;;;;;;;;;;;;25.23;59.76;101665.75;5036597;28;19924;-81
2023/09/08 03:11:21;;;;;;;;;;;;;;;25.24;59.58;101663.09;5042932;28;20373;-83
2023/09/08 03:13:47;;;;;;;;;;;;;;;25.25;59.81;101669.31;5068952;28;19946;-81
2023/09/08 03:16:12;;;;;;;;;;;;;;;25.23;59.47;101666.66;5070884;28;19927;-81
2023/09/08 03:18:37;;;;;;;;;;;;;;;25.25;59.45;101670.25;5072786;28;19916;-83
2023/09/08 03:21:08;;;;;;;;;;;;;;;25.24;59.50;101675.56;5064974;28;20500;-82
2023/09/08 03:23:41;;;;;;;;;;;;;;;25.24;59.33;101671.09;5069585;28;19916;-83
2023/09/08 03:26:06;;;;;;;;;;;;;;;25.24;59.57;101664.88;5067857;28;19927;-83
2023/09/08 03:28:32;;;;;;;;;;;;;;;25.23;59.42;101672.00;5041517;28;19928;-82
2023/09/08 03:30:58;;;;;;;;;;;;;;;25.21;59.65;101667.50;5059305;28;19936;-83
2023/09/08 03:33:23;;;;;;;;;;;;;;;25.23;59.25;101665.75;5060974;28;19917;-83
2023/09/08 03:35:48;;;;;;;;;;;;;;;25.21;59.51;101671.09;5048291;28;19960;-83
2023/09/08 03:38:14;;;;;;;;;;;;;;;25.19;59.45;101672.84;5062468;28;20412;-83
2023/09/08 03:40:40;;;;;;;;;;;;;;;25.18;59.52;101669.22;5059449;28;20469;-82
2023/09/08 03:43:05;;;;;;;;;;;;;;;25.17;59.38;101664.78;5063481;28;19917;-82
2023/09/08 03:45:30;;;;;;;;;;;;;;;25.17;59.38;101675.47;5064899;28;19916;-82
2023/09/08 03:47:56;;;;;;;;;;;;;;;25.15;59.35;101668.34;5058570;28;20440;-82
2023/09/08 03:50:24;;;;;;;;;;;;;;;25.13;59.51;101675.44;5066169;28;20229;-82
2023/09/08 03:52:50;;;;;;;;;;;;;;;25.14;59.47;101679.91;5064887;28;20446;-83
2023/09/08 03:55:16;;;;;;;;;;;;;;;25.13;59.40;101672.78;5035334;28;20364;-82
2023/09/08 03:57:42;;;;;;;;;;;;;;;25.19;59.12;101683.53;5067209;28;19917;-82
2023/09/08 04:00:08;;;;;;;;;;;;;;;25.18;59.09;101684.38;5063393;28;19966;-82
2023/09/08 04:02:33;;;;;;;;;;;;;;;25.18;59.13;101687.06;5065522;28;19985;-82
2023/09/08 04:04:59;;;;;;;;;;;;;;;25.15;59.43;101681.69;5067576;28;20620;-83
2023/09/08 04:07:24;;;;;;;;;;;;;;;25.11;59.44;101679.88;5071439;28;20397;-82
2023/09/08 04:09:50;;;;;;;;;;;;;;;25.13;59.66;101686.13;5069147;28;19953;-82
2023/09/08 04:12:15;;;;;;;;;;;;;;;25.18;59.45;101695.09;5069336;28;20471;-81
2023/09/08 04:14:41;;;;;;;;;;;;;;;25.16;59.49;101684.38;5057298;28;20390;-82
2023/09/08 04:17:06;;;;;;;;;;;;;;;25.16;59.28;101681.69;5058602;28;20022;-83
2023/09/08 04:19:31;;;;;;;;;;;;;;;25.15;59.41;101682.59;5071333;28;20294;-82
2023/09/08 04:21:57;;;;;;;;;;;;;;;25.11;59.63;101688.78;5072383;28;20369;-83
2023/09/08 04:24:22;;;;;;;;;;;;;;;25.09;59.24;101687.00;5048958;28;19917;-83
2023/09/08 04:26:48;;;;;;;;;;;;;;;25.09;59.54;101695.00;5053015;28;19912;-84
2023/09/08 04:29:13;;;;;;;;;;;;;;;25.11;59.32;101685.22;5065924;28;19913;-84
2023/09/08 04:31:38;;;;;;;;;;;;;;;25.09;59.41;101690.56;5045601;28;19916;-84
2023/09/08 04:34:04;;;;;;;;;;;;;;;25.09;59.12;101693.22;5061835;28;19923;-84
2023/09/08 04:36:30;;;;;;;;;;;;;;;25.10;58.96;101692.31;5041880;28;20382;-83
2023/09/08 04:38:56;;;;;;;;;;;;;;;25.07;59.30;101692.31;5035142;28;19920;-83
2023/09/08 04:41:21;;;;;;;;;;;;;;;25.08;59.39;101691.44;5053482;28;19917;-83
2023/09/08 04:43:46;;;;;;;;;;;;;;;25.08;59.30;101702.16;5054813;28;19939;-83
2023/09/08 04:46:12;;;;;;;;;;;;;;;25.07;59.29;101710.13;5054256;28;20354;-83
2023/09/08 04:48:38;;;;;;;;;;;;;;;25.08;59.13;101696.78;5058074;28;20374;-82
2023/09/08 04:51:03;;;;;;;;;;;;;;;25.10;59.26;101699.47;5046001;28;19917;-84
2023/09/08 04:53:28;;;;;;;;;;;;;;;25.07;59.16;101708.34;5068944;28;19916;-83
2023/09/08 04:55:54;;;;;;;;;;;;;;;25.07;59.22;101695.00;5059768;28;20011;-83
2023/09/08 04:58:19;;;;;;;;;;;;;;;25.05;59.24;101694.09;5072888;28;20403;-83
2023/09/08 05:00:45;;;;;;;;;;;;;;;25.05;59.06;101695.88;5064722;28;19917;-85
2023/09/08 05:03:10;;;;;;;;;;;;;;;25.03;59.06;101686.94;5051493;28;20413;-84
2023/09/08 05:05:36;;;;;;;;;;;;;;;25.02;58.87;101688.72;5053541;28;20409;-84
2023/09/08 05:08:01;;;;;;;;;;;;;;;24.98;59.14;101695.81;5070383;28;19920;-85
2023/09/08 05:10:26;;;;;;;;;;;;;;;24.95;59.09;101693.09;5067310;28;19939;-84
2023/09/08 05:12:52;;;;;;;;;;;;;;;24.97;59.18;101696.66;5059885;28;20386;-84
2023/09/08 05:15:20;;;;;;;;;;;;;;;24.98;59.08;101693.13;5050571;28;20339;-84
2023/09/08 05:17:46;;;;;;;;;;;;;;;24.99;59.05;101699.38;5062697;28;19979;-84
2023/09/08 05:20:11;;;;;;;;;;;;;;;24.96;58.99;101696.69;5051361;28;19924;-83
2023/09/08 05:22:36;;;;;;;;;;;;;;;24.96;58.53;101697.56;5045966;28;19966;-82
2023/09/08 05:25:02;;;;;;;;;;;;;;;24.97;58.86;101695.78;5048410;28;19916;-84
2023/09/08 05:27:28;;;;;;;;;;;;;;;24.91;58.57;101672.59;5054757;28;20366;-81
2023/09/08 05:29:53;;;;;;;;;;;;;;;24.97;58.92;101694.00;5059216;28;19916;-85
2023/09/08 05:32:19;;;;;;;;;;;;;;;24.96;58.97;101702.91;5049229;28;19953;-84
2023/09/08 05:34:44;;;;;;;;;;;;;;;24.98;59.00;101695.81;5069168;28;20404;-84
2023/09/08 05:37:10;;;;;;;;;;;;;;;24.96;59.29;101694.91;5050782;28;19916;-83
2023/09/08 05:39:35;;;;;;;;;;;;;;;24.98;58.79;101693.13;5069044;28;19947;-83
2023/09/08 05:42:00;;;;;;;;;;;;;;;24.98;58.93;101694.91;5061580;28;20373;-84
2023/09/08 05:44:26;;;;;;;;;;;;;;;25.00;58.93;101693.16;5067089;28;19985;-83
2023/09/08 05:46:51;;;;;;;;;;;;;;;24.97;58.98;101688.66;5057854;28;19924;-84
2023/09/08 05:49:17;;;;;;;;;;;;;;;24.97;58.99;101693.09;5053271;28;19931;-83
2023/09/08 05:51:43;;;;;;;;;;;;;;;24.98;58.77;101695.81;5044640;28;20327;-81
2023/09/08 05:54:09;;;;;;;;;;;;;;;24.97;58.73;101699.34;5046123;28;20386;-82
2023/09/08 05:56:34;;;;;;;;;;;;;;;24.92;59.17;101698.41;5050515;28;19916;-84
2023/09/08 05:59:01;;;;;;;;;;;;;;;24.99;58.95;101697.59;5038170;28;20328;-84
2023/09/08 06:01:26;;;;;;;;;;;;;;;24.99;59.06;101700.25;5036493;28;19921;-86
2023/09/08 06:03:52;;;;;;;;;;;;;;;24.98;59.37;101701.16;5062778;28;19944;-85
2023/09/08 06:06:17;;;;;;;;;;;;;;;25.02;59.33;101701.16;5045698;28;19992;-84
2023/09/08 06:08:43;;;;;;;;;;;;;;;24.96;59.76;101700.25;5071772;28;20460;-83
2023/09/08 06:11:08;;;;;;;;;;;;;;;24.98;59.91;101702.94;5040440;28;20479;-84
2023/09/08 06:13:34;;;;;;;;;;;;;;;25.04;59.57;101699.41;5038426;28;19917;-84
2023/09/08 06:15:59;;;;;;;;;;;;;;;24.98;59.86;101708.28;5041800;28;19921;-84
2023/09/08 06:18:27;;;;;;;;;;;;;;;24.99;59.92;101715.41;5047129;28;19956;-83
2023/09/08 06:20:53;;;;;;;;;;;;;;;25.03;59.85;101721.69;5042837;28;19921;-84
2023/09/08 06:23:19;;;;;;;;;;;;;;;25.00;60.21;101717.22;5044413;28;20312;-84
2023/09/08 06:25:45;;;;;;;;;;;;;;;25.01;60.38;101718.09;5037582;28;19924;-85
2023/09/08 06:28:10;;;;;;;;;;;;;;;24.98;60.57;101717.19;5034843;28;19917;-84
2023/09/08 06:30:36;;;;;;;;;;;;;;;25.01;60.60;101721.66;5069297;28;20378;-83
2023/09/08 06:33:01;;;;;;;;;;;;;;;25.06;60.36;101733.31;5048917;28;20023;-83
2023/09/08 06:35:27;;;;;;;;;;;;;;;25.05;60.56;101726.16;5044797;28;19961;-85
2023/09/08 06:37:52;;;;;;;;;;;;;;;25.01;60.60;101732.34;5055964;28;20401;-82
2023/09/08 06:40:17;;;;;;;;;;;;;;;25.04;61.00;101736.81;5053924;28;19917;-84
2023/09/08 06:42:43;;;;;;;;;;;;;;;25.02;60.63;101726.13;5033583;28;20373;-84
2023/09/08 06:45:08;;;;;;;;;;;;;;;25.04;61.12;101727.06;5050492;28;19929;-84
2023/09/08 06:47:34;;;;;;;;;;;;;;;25.01;60.90;101727.00;5027995;28;19921;-83
2023/09/08 06:50:00;;;;;;;;;;;;;;;25.02;60.97;101726.13;5048596;28;19921;-85
2023/09/08 06:52:25;;;;;;;;;;;;;;;25.04;60.78;101732.41;5046866;28;19956;-83
2023/09/08 06:54:51;;;;;;;;;;;;;;;25.04;60.97;101724.38;5046284;28;19964;-85
2023/09/08 06:57:18;;;;;;;;;;;;;;;25.09;60.97;101730.66;5033104;28;19927;-83
2023/09/08 06:59:43;;;;;;;;;;;;;;;25.10;60.86;101731.53;5070387;28;19913;-83
2023/09/08 07:02:08;;;;;;;;;;;;;;;25.01;61.17;101735.03;5083237;28;19966;-83
2023/09/08 07:04:34;;;;;;;;;;;;;;;25.07;61.34;101731.53;5080972;28;19940;-82
2023/09/08 07:07:06;;;;;;;;;;;;;;;25.06;61.27;101737.72;5050974;28;19917;-84
2023/09/08 07:09:35;;;;;;;;;;;;;;;25.07;61.35;101736.88;5053478;28;19999;-85
2023/09/08 07:12:01;;;;;;;;;;;;;;;25.09;61.65;101740.44;5051505;28;20394;-84
2023/09/08 07:14:26;;;;;;;;;;;;;;;25.09;61.45;101735.09;5056558;28;19925;-83
2023/09/08 07:16:52;;;;;;;;;;;;;;;25.06;61.69;101738.66;5039982;28;20309;-84
2023/09/08 07:19:17;;;;;;;;;;;;;;;25.07;61.69;101742.22;5052198;28;20075;-84
2023/09/08 07:21:43;;;;;;;;;;;;;;;25.00;62.01;101735.91;5046135;28;19924;-85
2023/09/08 07:24:08;;;;;;;;;;;;;;;25.02;61.60;101743.94;5054315;28;20424;-84
2023/09/08 07:26:34;;;;;;;;;;;;;;;25.03;61.65;101740.38;5057104;28;19917;-83
2023/09/08 07:28:59;;;;;;;;;;;;;;;25.05;61.65;101733.28;5050515;28;20321;-82
2023/09/08 07:31:25;;;;;;;;;;;;;;;25.08;61.61;101736.88;5063631;28;19991;-83
2023/09/08 07:33:50;;;;;;;;;;;;;;;25.09;61.44;101737.78;5057974;28;19989;-85
2023/09/08 07:36:16;;;;;;;;;;;;;;;25.09;61.99;101736.00;5087410;28;20158;-85
2023/09/08 07:38:41;;;;;;;;;;;;;;;25.10;61.25;101735.09;5062373;28;19916;-86
2023/09/08 07:41:07;;;;;;;;;;;;;;;25.15;61.83;101740.50;5049983;28;20444;-86
2023/09/08 07:43:33;;;;;;;;;;;;;;;25.15;62.21;101736.06;5062930;28;19938;-84
2023/09/08 07:45:58;;;;;;;;;;;;;;;25.15;62.04;101741.41;5057613;28;19920;-85
2023/09/08 07:48:23;;;;;;;;;;;;;;;25.13;62.17;101737.81;5085983;28;19977;-85
2023/09/08 07:50:49;;;;;;;;;;;;;;;25.15;62.21;101738.72;5051510;28;19939;-88
2023/09/08 07:53:14;;;;;;;;;;;;;;;25.19;61.89;101747.69;5047080;28;19921;-85
2023/09/08 07:55:40;;;;;;;;;;;;;;;25.13;62.23;101739.59;5045670;28;19933;-87
2023/09/08 07:58:05;;;;;;;;;;;;;;;25.15;62.85;101738.72;5047201;28;19974;-89
2023/09/08 08:00:34;;;;;;;;;;;;;;;25.11;65.32;101738.69;5045601;28;19925;-87
2023/09/08 08:03:02;;;;;;;;;;;;;;;25.01;64.90;101743.03;5056651;28;20422;-88
2023/09/08 08:05:31;;;;;;;;;;;;;;;25.08;64.72;101741.31;5048429;28;20000;-87
2023/09/08 08:07:56;;;;;;;;;;;;;;;25.09;64.42;101735.09;5052453;28;20365;-86
2023/09/08 08:10:22;;;;;;;;;;;;;;;25.12;64.35;101730.66;5051735;28;19920;-87
2023/09/08 08:12:47;;;;;;;;;;;;;;;25.07;64.22;101737.75;5053466;28;19919;-86
2023/09/08 08:15:13;;;;;;;;;;;;;;;25.11;63.65;101736.91;5054994;28;20011;-85
2023/09/08 08:17:38;;;;;;;;;;;;;;;25.09;63.97;101732.44;5042289;28;20071;-85
2023/09/08 08:20:16;;;;;;;;;;;;;;;25.12;63.72;101732.44;5048014;28;20298;-84
2023/09/08 08:22:42;;;;;;;;;;;;;;;25.08;64.01;101736.88;5046051;28;19974;-83
2023/09/08 08:25:07;;;;;;;;;;;;;;;25.10;63.46;101736.88;5048226;28;20003;-86
2023/09/08 08:27:33;;;;;;;;;;;;;;;25.14;63.53;101738.69;5039207;28;20018;-86
2023/09/08 08:30:00;;;;;;;;;;;;;;;25.12;63.31;101738.69;5044509;28;19913;-85
2023/09/08 08:32:26;;;;;;;;;;;;;;;25.09;63.39;101738.66;5073976;28;19917;-86
2023/09/08 08:34:51;;;;;;;;;;;;;;;25.12;63.36;101738.69;5045408;28;19921;-86
2023/09/08 08:37:17;;;;;;;;;;;;;;;25.08;63.55;101741.31;5045404;28;19920;-85
2023/09/08 08:39:43;;;;;;;;;;;;;;;25.07;63.35;101739.53;5075714;28;20399;-85
2023/09/08 08:42:12;;;;;;;;;;;;;;;25.06;63.48;101741.31;5086730;28;19917;-84
2023/09/08 08:44:38;;;;;;;;;;;;;;;25.09;63.62;101743.13;5052377;28;19917;-84
2023/09/08 08:47:03;;;;;;;;;;;;;;;25.08;63.29;101742.25;5054104;28;20306;-84
2023/09/08 08:49:30;;;;;;;;;;;;;;;25.09;63.68;101732.44;5062225;28;19928;-85
2023/09/08 08:51:55;;;;;;;;;;;;;;;25.06;63.74;101743.06;5072195;28;19923;-85
2023/09/08 08:54:21;;;;;;;;;;;;;;;25.07;63.26;101745.78;5045948;28;19913;-85
2023/09/08 08:56:47;;;;;;;;;;;;;;;25.05;63.11;101736.84;5074074;28;20306;-86
2023/09/08 08:59:13;;;;;;;;;;;;;;;25.06;63.82;101738.66;5045273;28;19995;-86
2023/09/08 09:01:38;;;;;;;;;;;;;;;25.06;63.48;101735.97;5068015;28;19913;-86
2023/09/08 09:04:05;;;;;;;;;;;;;;;25.08;63.16;101736.88;5050862;28;19920;-85
2023/09/08 09:06:31;;;;;;;;;;;;;;;25.04;63.18;101740.41;5039355;28;19917;-85
2023/09/08 09:08:56;;;;;;;;;;;;;;;25.06;62.89;101743.06;5041929;28;20365;-87
2023/09/08 09:11:21;;;;;;;;;;;;;;;25.04;62.84;101737.75;5049909;28;20493;-85
2023/09/08 09:13:47;;;;;;;;;;;;;;;25.05;62.92;101749.31;5043984;28;19917;-86
2023/09/08 09:16:12;;;;;;;;;;;;;;;25.02;63.21;101747.53;5073934;28;19921;-88
2023/09/08 09:18:56;;;;;;;;;;;;;;;25.04;63.27;101740.41;5082932;28;19912;-89
2023/09/08 09:21:21;;;;;;;;;;;;;;;25.08;63.24;101744.91;5050608;28;19988;-89
2023/09/08 09:23:46;;;;;;;;;;;;;;;25.05;63.72;101744.84;5024802;28;19936;-87
2023/09/08 09:26:12;;;;;;;;;;;;;;;25.06;63.43;101745.75;5048929;28;20027;-87
2023/09/08 09:28:46;;;;;;;;;;;;;;;25.12;63.71;101745.81;5049177;28;19917;-89
2023/09/08 09:31:12;;;;;;;;;;;;;;;25.13;63.68;101739.59;5045703;28;19916;-88
2023/09/08 09:33:39;;;;;;;;;;;;;;;25.06;63.81;101730.63;5071414;28;19924;-88
2023/09/08 09:36:05;;;;;;;;;;;;;;;25.09;63.76;101743.13;5083260;28;19959;-88
2023/09/08 09:38:30;;;;;;;;;;;;;;;25.10;63.91;101742.22;5035798;28;19999;-87
2023/09/08 09:40:56;;;;;;;;;;;;;;;25.05;63.67;101749.31;5050086;28;20015;-87
2023/09/08 09:43:25;;;;;;;;;;;;;;;25.12;64.75;101749.38;5046007;28;19917;-90
2023/09/08 09:45:50;;;;;;;;;;;;;;;25.14;64.37;101757.41;5048436;28;20333;-90
2023/09/08 09:48:16;;;;;;;;;;;;;;;25.12;64.40;101751.16;5041363;28;20487;-89
2023/09/08 09:50:45;;;;;;;;;;;;;;;25.12;64.15;101744.03;5048584;28;19916;-88
2023/09/08 09:53:14;;;;;;;;;;;;;;;25.12;64.28;101743.13;5049462;28;19995;-87
2023/09/08 09:55:43;;;;;;;;;;;;;;;25.14;64.24;101742.25;5031016;28;20019;-87
2023/09/08 09:58:10;;;;;;;;;;;;;;;25.12;64.17;101746.69;5035605;28;19960;-88
2023/09/08 10:00:36;;;;;;;;;;;;;;;25.12;64.43;101743.13;5037718;28;19924;-89
2023/09/08 10:03:02;;;;;;;;;;;;;;;25.14;64.23;101749.41;5037828;28;19993;-87
2023/09/08 10:05:31;;;;;;;;;;;;;;;25.12;64.30;101746.69;5031662;28;20007;-87
2023/09/08 10:07:56;;;;;;;;;;;;;;;25.16;64.09;101744.97;5037712;28;19917;-88
2023/09/08 10:10:22;;;;;;;;;;;;;;;25.16;63.72;101744.97;5067417;28;19916;-88
2023/09/08 10:13:03;;;;;;;;;;;;;;;25.15;64.24;101737.84;5062502;28;20423;-87
2023/09/08 10:15:28;;;;;;;;;;;;;;;25.12;64.34;101732.44;5037705;28;19925;-86
2023/09/08 10:17:57;;;;;;;;;;;;;;;25.11;63.99;101736.91;5047075;28;19985;-87
2023/09/08 10:20:23;;;;;;;;;;;;;;;25.12;64.19;101733.34;5041829;28;19912;-87
2023/09/08 10:22:49;;;;;;;;;;;;;;;25.13;64.95;101747.63;5058175;28;19923;-87
2023/09/08 10:25:15;;;;;;;;;;;;;;;25.14;64.17;101744.06;5045722;28;19974;-88
2023/09/08 10:27:41;;;;;;;;;;;;;;;25.11;64.50;101731.56;5037916;28;19916;-86
2023/09/08 10:30:07;;;;;;;;;;;;;;;25.16;64.10;101742.28;5035494;28;19923;-86
2023/09/08 10:32:32;;;;;;;;;;;;;;;25.14;64.60;101741.38;5037696;28;20394;-87
2023/09/08 10:34:59;;;;;;;;;;;;;;;25.13;64.60;101736.94;5065596;28;20294;-88
2023/09/08 10:37:27;;;;;;;;;;;;;;;25.13;64.23;101739.59;5041138;28;20039;-87
2023/09/08 10:39:53;;;;;;;;;;;;;;;25.13;64.11;101745.84;5048395;28;20405;-88
2023/09/08 10:42:19;;;;;;;;;;;;;;;25.18;64.14;101749.44;5050811;28;19927;-84
2023/09/08 10:44:51;;;;;;;;;;;;;;;25.16;64.52;101742.28;5048153;28;19953;-85
2023/09/08 10:47:20;;;;;;;;;;;;;;;25.14;64.00;101752.97;5072121;28;20432;-86
2023/09/08 10:49:45;;;;;;;;;;;;;;;25.17;64.06;101754.78;5050946;28;20475;-85
2023/09/08 10:52:11;;;;;;;;;;;;;;;25.16;63.92;101753.88;5036218;28;19917;-89
2023/09/08 10:54:40;;;;;;;;;;;;;;;25.15;63.81;101751.22;5077289;28;19920;-89
2023/09/08 10:57:15;;;;;;;;;;;;;;;25.16;63.67;101750.31;5067441;28;20301;-86
2023/09/08 11:00:16;;;;;;;;;;;;;;;25.18;63.82;101759.25;5063271;28;19912;-86
2023/09/08 11:02:48;;;;;;;;;;;;;;;25.15;63.56;101741.41;5005069;28;19955;-86
2023/09/08 11:05:16;;;;;;;;;;;;;;;25.16;63.49;101747.63;5012413;28;20008;-86
2023/09/08 11:07:49;;;;;;;;;;;;;;;25.14;63.66;101750.28;5026589;28;20498;-88
2023/09/08 11:10:47;;;;;;;;;;;;;;;;;;;;;
2023/09/08 11:13:32;;;;;;;;;;;;;;;;;;;;;
2023/09/08 11:16:09;;;;;;;;;;;;;;;;;;;;;
2023/09/08 11:19:09;;;;;;;;;;;;;;;;;;;;;
2023/09/08 11:21:37;;;;;;;;;;;;;;;25.21;63.76;101745.94;5045559;28;19918;-87
2023/09/08 11:24:14;;;;;;;;;;;;;;;25.19;63.36;101737.88;5071894;28;19999;-86
2023/09/08 12:05:24;;;;;;;;;;;;;;;25.38;63.83;101736.28;5039994;28;20352;-87
2023/09/08 12:07:53;;;;;;;;;;;;;;;25.43;63.55;101727.41;5038116;28;19943;-88
2023/09/08 12:10:19;;;;;;;;;;;;;;;25.37;64.25;101726.47;5016749;28;19983;-85
2023/09/08 12:12:55;;;;;;;;;;;;;;;25.42;63.50;101728.28;5032764;28;19956;-85
2023/09/08 12:15:36;;;;;;;;;;;;;;;25.38;63.81;101728.28;5053416;28;19921;-86
2023/09/08 12:18:03;;;;;;;;;;;;;;;25.42;63.41;101730.97;5050330;28;19921;-85
2023/09/08 12:20:28;;;;;;;;;;;;;;;25.43;63.48;101733.66;5052636;28;19980;-86
2023/09/08 12:22:54;;;;;;;;;;;;;;;25.43;63.82;101714.94;5048013;28;19932;-84
2023/09/08 12:25:19;;;;;;;;;;;;;;;25.38;63.45;101725.59;5029742;28;19968;-84
2023/09/08 12:27:46;;;;;;;;;;;;;;;25.39;63.37;101714.00;5047034;28;19936;-85
2023/09/08 12:30:16;;;;;;;;;;;;;;;25.38;63.37;101727.38;5025960;28;19932;-86
2023/09/08 12:32:41;;;;;;;;;;;;;;;25.40;63.66;101722.94;5053468;28;20466;-84
2023/09/08 12:35:07;;;;;;;;;;;;;;;25.34;63.89;101723.78;5043068;28;19917;-85
2023/09/08 12:37:33;;;;;;;;;;;;;;;25.35;63.51;101727.34;5043968;28;19925;-86
2023/09/08 12:40:00;;;;;;;;;;;;;;;25.36;63.60;101719.34;5046893;28;20007;-86
2023/09/08 12:42:29;;;;;;;;;;;;;;;25.39;63.73;101724.69;5056788;28;19917;-85
2023/09/08 12:44:54;;;;;;;;;;;;;;;25.38;63.53;101711.34;5044106;28;19925;-84
2023/09/08 12:47:20;;;;;;;;;;;;;;;25.37;63.45;101721.13;5048111;28;19944;-85
2023/09/08 12:49:45;;;;;;;;;;;;;;;25.40;63.19;101712.25;5051247;28;20444;-86
2023/09/08 12:52:11;;;;;;;;;;;;;;;25.37;63.56;101702.41;5049579;28;20008;-84
2023/09/08 12:54:36;;;;;;;;;;;;;;;25.43;63.14;101706.91;5050735;28;19943;-83
2023/09/08 12:57:02;;;;;;;;;;;;;;;25.45;63.08;101705.16;5040580;28;20308;-82
2023/09/08 12:59:27;;;;;;;;;;;;;;;25.43;63.04;101706.03;5047275;28;20601;-83
2023/09/08 13:01:53;;;;;;;;;;;;;;;25.43;63.10;101711.38;5050289;28;19921;-84
2023/09/08 13:04:18;;;;;;;;;;;;;;;25.42;63.08;101704.22;5054721;28;19927;-84
2023/09/08 13:06:44;;;;;;;;;;;;;;;25.51;62.73;101702.50;5049136;28;19921;-83
2023/09/08 13:09:09;;;;;;;;;;;;;;;25.47;63.22;101705.16;5038597;28;19967;-83
2023/09/08 13:11:35;;;;;;;;;;;;;;;25.45;63.00;101693.56;5049558;28;19932;-83
2023/09/08 13:14:00;;;;;;;;;;;;;;;25.44;63.03;101692.63;5038862;28;19979;-83
2023/09/08 13:16:26;;;;;;;;;;;;;;;25.46;63.22;101690.88;5046099;28;19921;-84